Time;durP1;ratioP1;P1;durP2;ratioP2;P2;SDS_P1;SDS_P2;PMS_P1;PMS_P2;Temp;Humidity;BMP_temperature;BMP_pressure;BME280_temperature;BME280_humidity;BME280_pressure;Samples;Min_cycle;Max_cycle;Signal;HPM_P1;HPM_P2
2023/01/15 00:00:47;;;;;;;421.13;216.67;;;;;;;;;;5002402;28;20249;-54
2023/01/15 00:03:13;;;;;;;414.43;217.90;;;;;;;;;;5002567;28;21630;-55
2023/01/15 00:05:39;;;;;;;410.47;219.60;;;;;;;;;;5000662;28;20689;-55
2023/01/15 00:08:05;;;;;;;465.90;249.93;;;;;;;;;;5003394;28;20589;-55
2023/01/15 00:10:31;;;;;;;459.93;247.90;;;;;;;;;;5016701;28;20180;-54
2023/01/15 00:12:57;;;;;;;452.60;247.40;;;;;;;;;;5009490;28;20218;-54
2023/01/15 00:15:23;;;;;;;434.23;229.20;;;;;;;;;;5005408;28;20222;-54
2023/01/15 00:17:50;;;;;;;462.57;244.87;;;;;;;;;;5004361;28;21475;-54
2023/01/15 00:20:16;;;;;;;416.23;223.67;;;;;;;;;;5008504;28;20207;-54
2023/01/15 00:22:42;;;;;;;506.50;278.37;;;;;;;;;;5006323;28;20553;-57
2023/01/15 00:27:54;;;;;;;438.40;231.57;;;;;;;;;;5025268;28;20301;-55
2023/01/15 00:30:22;;;;;;;459.60;248.63;;;;;;;;;;5003135;28;20574;-54
2023/01/15 00:32:51;;;;;;;458.27;236.77;;;;;;;;;;5009111;28;20223;-55
2023/01/15 00:35:19;;;;;;;416.77;219.43;;;;;;;;;;5010351;28;20230;-54
2023/01/15 00:37:45;;;;;;;419.97;213.77;;;;;;;;;;5015968;28;20348;-54
2023/01/15 00:40:12;;;;;;;387.93;199.70;;;;;;;;;;5012339;28;20883;-57
2023/01/15 00:42:38;;;;;;;427.27;232.00;;;;;;;;;;5004728;28;20488;-54
2023/01/15 00:45:09;;;;;;;492.57;273.90;;;;;;;;;;4983036;28;20233;-54
2023/01/15 00:47:42;;;;;;;558.70;311.70;;;;;;;;;;4996299;28;20274;-54
2023/01/15 00:50:11;;;;;;;437.50;234.20;;;;;;;;;;5005372;28;20216;-55
2023/01/15 00:52:37;;;;;;;353.20;184.23;;;;;;;;;;4999324;28;20582;-55
2023/01/15 00:55:04;;;;;;;488.67;267.40;;;;;;;;;;4998827;28;20450;-55
2023/01/15 00:57:30;;;;;;;417.67;216.33;;;;;;;;;;5002006;28;20269;-55
2023/01/15 00:59:56;;;;;;;477.13;254.33;;;;;;;;;;5004078;28;20511;-55
2023/01/15 01:02:22;;;;;;;418.10;221.87;;;;;;;;;;5005274;28;20476;-56
2023/01/15 01:04:48;;;;;;;412.40;217.67;;;;;;;;;;5009298;28;20689;-55
2023/01/15 01:07:14;;;;;;;405.57;221.77;;;;;;;;;;5001166;28;20227;-59
2023/01/15 01:09:40;;;;;;;440.83;234.50;;;;;;;;;;5012831;28;20573;-56
2023/01/15 01:12:06;;;;;;;427.50;226.27;;;;;;;;;;5002294;28;20210;-56
2023/01/15 01:14:33;;;;;;;428.23;234.00;;;;;;;;;;5005196;28;20215;-55
2023/01/15 01:16:59;;;;;;;440.70;225.67;;;;;;;;;;5016096;28;20230;-56
2023/01/15 01:19:25;;;;;;;410.33;221.23;;;;;;;;;;5012881;28;20188;-56
2023/01/15 01:21:52;;;;;;;423.97;224.63;;;;;;;;;;5008841;28;20425;-55
2023/01/15 01:24:20;;;;;;;419.20;223.87;;;;;;;;;;5018853;28;20243;-55
2023/01/15 01:26:46;;;;;;;365.60;183.77;;;;;;;;;;5010153;28;20222;-56
2023/01/15 01:29:13;;;;;;;399.73;213.63;;;;;;;;;;5032689;28;20219;-56
2023/01/15 01:31:39;;;;;;;378.07;200.10;;;;;;;;;;5016303;28;20288;-56
2023/01/15 01:34:05;;;;;;;436.43;229.30;;;;;;;;;;5017314;28;20175;-56
2023/01/15 01:36:33;;;;;;;448.53;241.43;;;;;;;;;;5008937;28;20274;-55
2023/01/15 01:38:59;;;;;;;462.73;243.27;;;;;;;;;;5010921;28;20223;-55
2023/01/15 01:41:26;;;;;;;478.07;255.90;;;;;;;;;;5004745;28;20250;-56
2023/01/15 01:44:02;;;;;;;465.77;248.17;;;;;;;;;;5016114;28;20183;-55
2023/01/15 01:46:29;;;;;;;386.47;203.50;;;;;;;;;;5028329;28;21487;-56
2023/01/15 01:48:59;;;;;;;457.40;237.73;;;;;;;;;;5029773;28;20644;-54
2023/01/15 01:51:28;;;;;;;491.97;270.33;;;;;;;;;;5011382;28;20337;-57
2023/01/15 01:53:55;;;;;;;456.00;243.33;;;;;;;;;;5019915;28;20589;-56
2023/01/15 01:56:22;;;;;;;430.17;228.90;;;;;;;;;;5020806;28;20305;-56
2023/01/15 01:58:51;;;;;;;355.53;187.13;;;;;;;;;;5017895;28;20199;-57
2023/01/15 02:01:18;;;;;;;385.70;201.63;;;;;;;;;;4996101;28;20412;-55
2023/01/15 02:03:45;;;;;;;471.17;258.70;;;;;;;;;;5012519;28;20214;-55
2023/01/15 02:06:12;;;;;;;446.07;242.20;;;;;;;;;;4997179;28;20736;-55
2023/01/15 02:08:38;;;;;;;440.27;242.00;;;;;;;;;;4994955;28;20310;-55
2023/01/15 02:11:05;;;;;;;474.73;257.13;;;;;;;;;;5005986;28;20265;-55
2023/01/15 02:13:37;;;;;;;377.30;204.33;;;;;;;;;;5015763;28;20923;-55
2023/01/15 02:16:08;;;;;;;466.57;246.07;;;;;;;;;;5005989;28;20235;-55
2023/01/15 02:18:36;;;;;;;442.90;229.13;;;;;;;;;;5013012;28;20604;-55
2023/01/15 02:21:15;;;;;;;404.67;213.30;;;;;;;;;;5003595;28;20204;-55
2023/01/15 02:24:00;;;;;;;401.47;213.53;;;;;;;;;;5010355;28;20322;-55
2023/01/15 02:26:45;;;;;;;448.67;242.57;;;;;;;;;;5008011;28;20219;-56
2023/01/15 02:29:17;;;;;;;489.60;269.23;;;;;;;;;;5003452;28;21301;-55
2023/01/15 02:31:46;;;;;;;417.57;217.33;;;;;;;;;;5017054;28;20210;-55
2023/01/15 02:34:12;;;;;;;451.83;247.90;;;;;;;;;;5029533;28;20187;-55
2023/01/15 02:36:41;;;;;;;446.63;234.47;;;;;;;;;;5024444;28;20835;-55
2023/01/15 02:39:09;;;;;;;437.97;234.80;;;;;;;;;;5014145;28;20601;-55
2023/01/15 02:41:38;;;;;;;375.60;194.13;;;;;;;;;;5018818;28;20214;-55
2023/01/15 02:44:05;;;;;;;411.33;219.90;;;;;;;;;;5018817;28;20218;-55
2023/01/15 02:46:34;;;;;;;435.63;232.03;;;;;;;;;;5016779;28;20726;-55
2023/01/15 02:49:01;;;;;;;397.77;218.53;;;;;;;;;;5011678;28;20211;-55
2023/01/15 02:51:30;;;;;;;502.53;268.33;;;;;;;;;;5008072;28;20231;-55
2023/01/15 02:53:58;;;;;;;434.80;236.70;;;;;;;;;;4994577;28;20265;-55
2023/01/15 02:56:27;;;;;;;388.87;201.87;;;;;;;;;;5013337;28;20298;-55
2023/01/15 02:58:54;;;;;;;415.60;222.80;;;;;;;;;;5008825;28;20184;-55
2023/01/15 03:01:27;;;;;;;425.23;225.60;;;;;;;;;;5000250;28;20579;-55
2023/01/15 03:03:53;;;;;;;467.00;249.23;;;;;;;;;;5005340;28;20267;-56
2023/01/15 03:06:43;;;;;;;471.97;257.27;;;;;;;;;;5010226;28;20441;-55
2023/01/15 03:09:09;;;;;;;406.77;222.77;;;;;;;;;;4998372;28;20227;-55
2023/01/15 03:11:38;;;;;;;464.90;244.40;;;;;;;;;;5005950;28;20247;-55
2023/01/15 03:14:06;;;;;;;418.70;215.17;;;;;;;;;;5008373;28;20312;-55
2023/01/15 03:16:37;;;;;;;474.60;248.37;;;;;;;;;;5004321;28;20238;-55
2023/01/15 03:19:04;;;;;;;376.40;200.57;;;;;;;;;;5015156;28;20208;-55
2023/01/15 03:24:03;;;;;;;476.03;278.77;;;;;;;;;;4959989;28;20343;-53
2023/01/15 03:26:30;;;;;;;400.20;225.77;;;;;;;;;;4959191;28;20224;-50
2023/01/15 03:28:56;;;;;;;435.60;251.30;;;;;;;;;;4968594;28;20229;-51
2023/01/15 03:31:22;;;;;;;427.13;246.20;;;;;;;;;;4961147;28;20218;-50
2023/01/15 03:33:48;;;;;;;429.40;250.03;;;;;;;;;;4983075;28;20324;-50
2023/01/15 03:36:14;;;;;;;470.37;271.47;;;;;;;;;;4978421;28;20239;-50
2023/01/15 03:38:41;;;;;;;460.90;272.13;;;;;;;;;;4991022;28;20210;-51
2023/01/15 03:41:31;;;;;;;473.50;266.53;;;;;;;;;;4962838;28;20464;-50
2023/01/15 03:44:16;;;;;;;483.93;274.47;;;;;;;;;;4970277;28;20225;-52
2023/01/15 03:46:53;;;;;;;422.80;240.33;;;;;;;;;;4961075;28;20216;-50
2023/01/15 03:49:19;;;;;;;508.93;299.17;;;;;;;;;;4974852;28;20215;-52
2023/01/15 03:51:52;;;;;;;426.97;235.07;;;;;;;;;;4981824;28;20304;-52
2023/01/15 03:54:23;;;;;;;519.27;299.47;;;;;;;;;;4991435;28;20218;-51
2023/01/15 03:56:55;;;;;;;377.43;209.00;;;;;;;;;;4968598;28;20657;-52
2023/01/15 03:59:37;;;;;;;450.67;257.77;;;;;;;;;;4980376;28;20268;-52
2023/01/15 04:02:08;;;;;;;458.27;266.07;;;;;;;;;;4971388;28;20222;-50
2023/01/15 04:04:34;;;;;;;487.10;274.13;;;;;;;;;;4977897;28;20219;-51
2023/01/15 04:07:02;;;;;;;417.70;229.50;;;;;;;;;;5020226;28;20552;-51
2023/01/15 04:09:28;;;;;;;436.60;242.60;;;;;;;;;;4980885;28;20416;-52
2023/01/15 04:11:58;;;;;;;428.27;250.40;;;;;;;;;;4984476;28;20236;-52
2023/01/15 04:14:24;;;;;;;397.90;231.67;;;;;;;;;;4972129;28;20338;-52
2023/01/15 04:16:50;;;;;;;448.30;247.33;;;;;;;;;;4973539;28;20813;-51
2023/01/15 04:19:16;;;;;;;459.13;262.10;;;;;;;;;;4973778;28;20282;-52
2023/01/15 04:21:42;;;;;;;455.27;254.63;;;;;;;;;;4985767;28;20229;-51
2023/01/15 04:24:08;;;;;;;478.93;285.33;;;;;;;;;;4956393;28;20278;-50
2023/01/15 04:26:34;;;;;;;503.20;288.87;;;;;;;;;;4971276;28;20819;-52
2023/01/15 04:29:01;;;;;;;428.30;240.90;;;;;;;;;;4973643;28;21218;-51
2023/01/15 04:31:27;;;;;;;421.07;234.40;;;;;;;;;;4979811;28;20520;-52
2023/01/15 04:33:53;;;;;;;420.70;235.77;;;;;;;;;;4977133;28;20229;-54
2023/01/15 04:36:19;;;;;;;518.47;309.23;;;;;;;;;;4969931;28;20508;-50
2023/01/15 04:38:45;;;;;;;529.00;303.67;;;;;;;;;;4968359;28;20526;-51
2023/01/15 04:44:05;;;;;;;410.80;230.27;;;;;;;;;;4967578;28;20576;-52
2023/01/15 04:46:31;;;;;;;417.40;236.07;;;;;;;;;;4969211;28;21283;-51
2023/01/15 04:48:57;;;;;;;431.90;251.50;;;;;;;;;;4975599;28;20254;-52
2023/01/15 04:51:23;;;;;;;421.10;240.80;;;;;;;;;;4966365;28;20216;-51
2023/01/15 04:53:49;;;;;;;459.60;271.03;;;;;;;;;;4988307;28;20282;-51
2023/01/15 04:56:15;;;;;;;421.10;248.00;;;;;;;;;;4982517;28;20245;-51
2023/01/15 04:58:41;;;;;;;476.67;273.30;;;;;;;;;;4981191;28;21229;-51
2023/01/15 05:01:12;;;;;;;416.67;240.93;;;;;;;;;;4972442;28;20189;-51
2023/01/15 05:03:38;;;;;;;508.30;304.43;;;;;;;;;;4957761;28;20210;-51
2023/01/15 05:06:04;;;;;;;464.77;262.57;;;;;;;;;;4963063;28;20221;-53
2023/01/15 05:08:30;;;;;;;519.20;297.87;;;;;;;;;;4958079;28;20276;-53
2023/01/15 05:11:01;;;;;;;398.70;223.53;;;;;;;;;;4972335;28;20213;-53
2023/01/15 05:13:27;;;;;;;454.37;260.17;;;;;;;;;;4964964;28;20232;-51
2023/01/15 05:15:53;;;;;;;495.43;284.27;;;;;;;;;;4974588;28;20699;-51
2023/01/15 05:18:19;;;;;;;483.50;280.90;;;;;;;;;;4964755;28;20224;-52
2023/01/15 05:20:45;;;;;;;492.70;279.93;;;;;;;;;;4974801;28;20218;-50
2023/01/15 05:23:11;;;;;;;408.90;227.37;;;;;;;;;;4970437;28;20228;-52
2023/01/15 05:25:37;;;;;;;437.87;244.83;;;;;;;;;;4965151;28;20261;-52
2023/01/15 05:28:03;;;;;;;435.73;248.80;;;;;;;;;;4975459;28;20180;-51
2023/01/15 05:30:29;;;;;;;502.83;287.80;;;;;;;;;;4987820;28;20317;-51
2023/01/15 05:32:55;;;;;;;495.73;285.20;;;;;;;;;;4960729;28;20751;-52
2023/01/15 05:35:21;;;;;;;516.77;311.83;;;;;;;;;;4956160;28;20347;-52
2023/01/15 05:37:47;;;;;;;482.57;279.13;;;;;;;;;;4977702;28;20743;-51
2023/01/15 05:40:13;;;;;;;421.87;240.43;;;;;;;;;;4973798;28;21290;-52
2023/01/15 05:42:39;;;;;;;477.63;275.57;;;;;;;;;;4968737;28;20926;-51
2023/01/15 05:45:05;;;;;;;454.60;266.23;;;;;;;;;;5041749;28;20311;-52
2023/01/15 05:47:32;;;;;;;453.33;258.50;;;;;;;;;;5038648;28;20210;-50
2023/01/15 05:49:58;;;;;;;448.13;256.83;;;;;;;;;;5019778;28;20238;-51
2023/01/15 05:52:24;;;;;;;451.83;260.83;;;;;;;;;;5013608;28;20225;-52
2023/01/15 05:54:50;;;;;;;475.93;264.17;;;;;;;;;;5012093;28;20309;-52
2023/01/15 05:57:16;;;;;;;419.20;237.23;;;;;;;;;;4994408;28;20827;-51
2023/01/15 05:59:42;;;;;;;451.23;252.70;;;;;;;;;;5012654;28;20804;-51
2023/01/15 06:02:08;;;;;;;458.67;269.10;;;;;;;;;;4997952;28;22843;-51
2023/01/15 06:04:34;;;;;;;441.60;257.70;;;;;;;;;;4998238;28;20303;-50
2023/01/15 06:07:00;;;;;;;423.37;238.73;;;;;;;;;;4983586;28;20217;-51
2023/01/15 06:09:28;;;;;;;416.97;235.33;;;;;;;;;;4968922;28;20218;-51
2023/01/15 06:11:54;;;;;;;435.43;241.83;;;;;;;;;;4984056;28;20526;-51
2023/01/15 06:14:20;;;;;;;462.17;259.83;;;;;;;;;;4992880;28;20210;-51
2023/01/15 06:16:46;;;;;;;414.80;231.43;;;;;;;;;;4960869;28;20286;-51
2023/01/15 06:19:13;;;;;;;440.10;250.70;;;;;;;;;;4977371;28;20230;-51
2023/01/15 06:21:39;;;;;;;446.97;238.10;;;;;;;;;;4986427;28;20253;-51
2023/01/15 06:24:06;;;;;;;530.33;286.63;;;;;;;;;;4985225;28;20247;-50
2023/01/15 06:26:32;;;;;;;544.33;296.93;;;;;;;;;;5017002;28;20708;-50
2023/01/15 06:28:58;;;;;;;569.37;312.03;;;;;;;;;;4999103;28;20295;-52
2023/01/15 06:31:27;;;;;;;553.17;295.23;;;;;;;;;;4997553;28;20194;-52
2023/01/15 06:33:53;;;;;;;523.67;280.83;;;;;;;;;;4971063;28;20240;-51
2023/01/15 06:36:21;;;;;;;576.60;323.03;;;;;;;;;;4973945;28;20254;-51
2023/01/15 06:38:47;;;;;;;587.50;325.70;;;;;;;;;;4964823;28;20328;-50
2023/01/15 06:49:30;;;;;;;509.97;276.03;;;;;;;;;;4985609;28;20240;-51
2023/01/15 06:51:57;;;;;;;596.27;339.53;;;;;;;;;;4971189;28;20627;-51
2023/01/15 06:54:23;;;;;;;530.07;287.63;;;;;;;;;;4978493;28;20431;-51
2023/01/15 06:56:49;;;;;;;506.80;268.83;;;;;;;;;;4991212;28;21788;-50
2023/01/15 06:59:15;;;;;;;517.13;276.07;;;;;;;;;;4982428;28;20292;-52
2023/01/15 07:01:41;;;;;;;517.73;278.63;;;;;;;;;;4971636;28;20229;-49
2023/01/15 07:04:08;;;;;;;555.13;301.03;;;;;;;;;;4974769;28;20171;-51
2023/01/15 07:06:34;;;;;;;611.23;346.90;;;;;;;;;;4960595;28;21102;-52
2023/01/15 07:09:00;;;;;;;518.97;278.23;;;;;;;;;;5000996;28;20303;-51
2023/01/15 07:11:27;;;;;;;506.90;270.63;;;;;;;;;;4994939;28;20225;-51
2023/01/15 07:14:04;;;;;;;535.93;284.20;;;;;;;;;;4984235;28;20263;-51
2023/01/15 07:16:37;;;;;;;545.17;299.50;;;;;;;;;;5002253;28;20690;-51
2023/01/15 07:19:03;;;;;;;503.43;271.20;;;;;;;;;;4978852;28;20210;-51
2023/01/15 07:21:30;;;;;;;533.77;294.20;;;;;;;;;;4976814;28;20217;-51
2023/01/15 07:23:58;;;;;;;557.67;300.63;;;;;;;;;;4971760;28;21697;-50
2023/01/15 07:26:25;;;;;;;571.30;315.67;;;;;;;;;;4995524;28;20470;-52
2023/01/15 07:28:51;;;;;;;560.33;309.67;;;;;;;;;;4990427;28;20218;-51
2023/01/15 07:31:17;;;;;;;569.80;314.17;;;;;;;;;;4969001;28;20182;-52
2023/01/15 07:33:43;;;;;;;550.73;302.80;;;;;;;;;;4945545;28;20359;-53
2023/01/15 07:36:09;;;;;;;530.30;288.87;;;;;;;;;;4991706;28;20237;-51
2023/01/15 07:38:36;;;;;;;551.40;300.60;;;;;;;;;;4986251;28;20354;-52
2023/01/15 07:52:01;;;;;;;547.67;297.30;;;;;;;;;;4970011;28;20221;-52
2023/01/15 07:54:28;;;;;;;585.83;326.20;;;;;;;;;;4952493;28;20362;-53
2023/01/15 07:56:55;;;;;;;536.03;279.93;;;;;;;;;;5015276;28;20703;-52
2023/01/15 07:59:21;;;;;;;560.03;302.70;;;;;;;;;;5033765;28;20687;-52
2023/01/15 08:01:47;;;;;;;611.33;342.53;;;;;;;;;;5005359;28;20209;-53
2023/01/15 08:04:13;;;;;;;557.03;305.53;;;;;;;;;;5035944;28;20549;-53
2023/01/15 08:06:39;;;;;;;630.77;357.60;;;;;;;;;;4982450;28;20338;-53
2023/01/15 08:09:05;;;;;;;539.83;294.47;;;;;;;;;;4998079;28;20341;-52
2023/01/15 08:17:02;;;;;;;548.30;303.50;;;;;;;;;;4969135;28;20399;-51
2023/01/15 08:19:29;;;;;;;579.83;327.93;;;;;;;;;;4982801;28;20186;-54
2023/01/15 08:21:56;;;;;;;561.83;304.70;;;;;;;;;;5023210;28;20486;-52
2023/01/15 08:24:22;;;;;;;594.53;336.43;;;;;;;;;;5011703;28;20230;-52
2023/01/15 08:26:48;;;;;;;599.70;334.93;;;;;;;;;;4992038;28;20322;-52
2023/01/15 08:29:14;;;;;;;565.93;309.90;;;;;;;;;;5002446;28;20225;-52
2023/01/15 08:31:41;;;;;;;606.43;338.40;;;;;;;;;;5014322;28;20285;-52
2023/01/15 08:34:07;;;;;;;639.80;371.90;;;;;;;;;;4975450;28;20293;-52
2023/01/15 08:36:33;;;;;;;591.97;336.10;;;;;;;;;;4981163;28;20233;-51
2023/01/15 08:38:59;;;;;;;633.57;370.57;;;;;;;;;;4971642;28;20229;-52
2023/01/15 08:41:25;;;;;;;553.70;305.97;;;;;;;;;;4963683;28;20349;-55
2023/01/15 08:43:51;;;;;;;617.57;355.70;;;;;;;;;;4972304;28;20225;-51
2023/01/15 08:46:17;;;;;;;564.73;311.10;;;;;;;;;;5017332;28;20224;-52
2023/01/15 08:48:43;;;;;;;565.30;304.77;;;;;;;;;;5034244;28;20305;-51
2023/01/15 08:51:10;;;;;;;538.97;294.43;;;;;;;;;;5011446;28;20221;-54
2023/01/15 08:53:36;;;;;;;559.10;303.23;;;;;;;;;;5011946;28;20970;-52
2023/01/15 08:56:02;;;;;;;580.20;319.87;;;;;;;;;;5009368;28;20244;-52
2023/01/15 08:58:29;;;;;;;554.93;317.27;;;;;;;;;;4995874;28;20223;-51
2023/01/15 09:00:55;;;;;;;605.63;345.77;;;;;;;;;;5003122;28;20220;-53
2023/01/15 09:03:21;;;;;;;552.47;307.43;;;;;;;;;;5021021;28;20229;-52
2023/01/15 09:05:47;;;;;;;589.90;325.33;;;;;;;;;;5017703;28;20276;-50
2023/01/15 09:08:13;;;;;;;589.20;324.40;;;;;;;;;;5005143;28;20414;-51
2023/01/15 09:10:39;;;;;;;579.30;326.90;;;;;;;;;;5006819;28;20186;-52
2023/01/15 09:13:05;;;;;;;569.23;324.23;;;;;;;;;;5010840;28;20247;-51
2023/01/15 09:15:32;;;;;;;656.17;373.30;;;;;;;;;;5004701;28;20583;-51
2023/01/15 09:17:59;;;;;;;563.13;304.70;;;;;;;;;;4993304;28;20218;-51
2023/01/15 09:20:25;;;;;;;557.10;307.17;;;;;;;;;;5002813;28;20205;-51
2023/01/15 09:22:52;;;;;;;635.30;360.10;;;;;;;;;;5003954;22;20386;-55
2023/01/15 09:25:22;;;;;;;536.23;299.73;;;;;;;;;;4947596;28;20563;-56
2023/01/15 09:27:48;;;;;;;615.47;343.50;;;;;;;;;;4901311;28;20338;-55
2023/01/15 09:30:17;;;;;;;605.40;321.67;;;;;;;;;;4895481;28;20218;-56
2023/01/15 09:32:43;;;;;;;583.70;325.30;;;;;;;;;;4919835;28;20482;-54
2023/01/15 09:35:09;;;;;;;604.23;329.20;;;;;;;;;;4910754;28;20674;-54
2023/01/15 09:37:36;;;;;;;658.07;368.90;;;;;;;;;;4912547;28;20192;-55
2023/01/15 09:40:04;;;;;;;638.07;347.80;;;;;;;;;;4911083;28;20361;-55
2023/01/15 09:42:51;;;;;;;643.23;356.17;;;;;;;;;;4910046;28;20616;-55
2023/01/15 09:45:39;;;;;;;652.87;357.10;;;;;;;;;;4934444;28;20210;-55
2023/01/15 09:48:17;;;;;;;632.37;351.53;;;;;;;;;;4929898;28;20633;-55
2023/01/15 09:50:58;;;;;;;633.13;343.90;;;;;;;;;;4895983;28;20253;-55
2023/01/15 09:53:49;;;;;;;587.03;327.20;;;;;;;;;;4913341;28;20316;-56
2023/01/15 09:56:31;;;;;;;596.07;332.80;;;;;;;;;;4920692;28;20458;-55
2023/01/15 09:58:59;;;;;;;560.40;294.30;;;;;;;;;;4903161;28;20232;-55
2023/01/15 10:01:27;;;;;;;597.87;320.10;;;;;;;;;;4916861;28;20334;-55
2023/01/15 10:03:58;;;;;;;577.47;317.20;;;;;;;;;;4912451;28;20306;-56
2023/01/15 10:06:41;;;;;;;622.93;364.57;;;;;;;;;;4932643;28;20248;-55
2023/01/15 10:09:14;;;;;;;633.47;336.27;;;;;;;;;;4922328;28;20292;-54
2023/01/15 10:14:38;;;;;;;590.57;327.87;;;;;;;;;;4902519;28;20883;-55
2023/01/15 10:17:40;;;;;;;576.60;305.50;;;;;;;;;;4915405;28;20259;-55
2023/01/15 10:20:14;;;;;;;632.20;348.57;;;;;;;;;;4917651;28;20425;-55
2023/01/15 10:22:48;;;;;;;586.37;314.33;;;;;;;;;;4920497;28;20226;-56
2023/01/15 10:25:17;;;;;;;619.10;338.80;;;;;;;;;;4917382;28;20325;-55
2023/01/15 10:27:47;;;;;;;578.67;302.33;;;;;;;;;;4919039;28;20226;-55
2023/01/15 10:30:31;;;;;;;647.10;361.13;;;;;;;;;;4903105;28;20218;-55
2023/01/15 10:33:02;;;;;;;620.33;329.20;;;;;;;;;;4918780;28;20596;-56
2023/01/15 10:35:38;;;;;;;624.67;353.07;;;;;;;;;;4912799;28;20380;-54
2023/01/15 10:38:23;;;;;;;620.70;342.40;;;;;;;;;;4909400;28;20301;-55
2023/01/15 10:41:08;;;;;;;548.37;298.67;;;;;;;;;;4921673;28;20191;-55
2023/01/15 10:43:46;;;;;;;630.00;352.57;;;;;;;;;;4918874;28;20238;-55
2023/01/15 10:46:14;;;;;;;634.57;352.00;;;;;;;;;;4912288;28;20360;-55
2023/01/15 10:48:50;;;;;;;651.60;360.07;;;;;;;;;;4909675;28;20393;-57
2023/01/15 10:51:24;;;;;;;629.90;351.77;;;;;;;;;;4913742;28;20500;-55
2023/01/15 10:53:58;;;;;;;593.03;320.83;;;;;;;;;;4919523;28;20253;-55
2023/01/15 10:56:34;;;;;;;588.80;316.97;;;;;;;;;;4911605;28;20928;-54
2023/01/15 10:59:20;;;;;;;590.30;318.40;;;;;;;;;;4922310;28;20274;-55
2023/01/15 11:01:51;;;;;;;560.60;305.37;;;;;;;;;;4924936;28;20309;-55
2023/01/15 11:04:18;;;;;;;624.50;333.17;;;;;;;;;;4902645;28;20836;-55
2023/01/15 11:06:45;;;;;;;677.27;378.93;;;;;;;;;;4911941;28;20853;-55
2023/01/15 11:09:23;;;;;;;626.10;340.73;;;;;;;;;;4920142;28;20718;-55
2023/01/15 11:20:29;;;;;;;643.97;354.07;;;;;;;;;;4914842;28;20305;-55
2023/01/15 11:23:00;;;;;;;569.40;293.03;;;;;;;;;;4897274;28;20242;-55
2023/01/15 11:25:30;;;;;;;558.80;303.17;;;;;;;;;;4913072;28;20596;-55
2023/01/15 11:28:04;;;;;;;628.07;342.10;;;;;;;;;;4926054;28;21049;-57
2023/01/15 11:30:36;;;;;;;658.10;363.20;;;;;;;;;;4889244;28;20479;-55
2023/01/15 11:33:06;;;;;;;623.10;341.10;;;;;;;;;;4920659;28;20701;-56
2023/01/15 11:35:33;;;;;;;526.17;271.97;;;;;;;;;;4938579;28;20249;-56
2023/01/15 11:38:09;;;;;;;541.43;279.00;;;;;;;;;;4935784;28;20581;-55
2023/01/15 11:40:36;;;;;;;584.37;312.97;;;;;;;;;;4925471;28;20817;-56
2023/01/15 11:51:41;;;;;;;643.00;359.97;;;;;;;;;;4913840;28;21672;-56
2023/01/15 11:54:09;;;;;;;512.60;277.27;;;;;;;;;;4922926;28;20221;-56
2023/01/15 11:56:36;;;;;;;594.33;313.83;;;;;;;;;;4888995;28;20842;-56
2023/01/15 11:59:09;;;;;;;588.27;320.03;;;;;;;;;;4903807;28;20448;-55
2023/01/15 12:01:37;;;;;;;664.77;374.77;;;;;;;;;;4909347;28;20214;-57
2023/01/15 12:04:08;;;;;;;584.30;312.80;;;;;;;;;;4916152;28;20428;-56
2023/01/15 12:06:41;;;;;;;640.60;355.53;;;;;;;;;;4905953;28;20230;-55
2023/01/15 12:09:13;;;;;;;552.13;303.40;;;;;;;;;;4887910;28;20274;-58
2023/01/15 12:11:52;;;;;;;624.77;341.00;;;;;;;;;;4913148;28;20222;-56
2023/01/15 12:14:31;;;;;;;612.20;333.37;;;;;;;;;;4914830;28;20214;-55
2023/01/15 12:17:15;;;;;;;614.57;342.03;;;;;;;;;;4897390;28;20243;-55
2023/01/15 12:19:47;;;;;;;575.70;313.63;;;;;;;;;;4919016;28;20201;-56
2023/01/15 12:22:35;;;;;;;597.00;314.73;;;;;;;;;;4923385;28;20287;-57
2023/01/15 12:25:20;;;;;;;617.70;332.77;;;;;;;;;;4909291;28;20317;-55
2023/01/15 12:27:58;;;;;;;593.03;323.20;;;;;;;;;;4920108;28;21131;-56
2023/01/15 12:30:30;;;;;;;600.43;324.70;;;;;;;;;;4898950;28;20226;-57
2023/01/15 12:33:15;;;;;;;559.20;304.17;;;;;;;;;;4881250;28;20223;-55
2023/01/15 12:35:44;;;;;;;515.83;266.17;;;;;;;;;;4925834;28;20242;-55
2023/01/15 12:38:36;;;;;;;595.73;326.80;;;;;;;;;;4889307;28;20229;-56
2023/01/15 12:41:17;;;;;;;610.93;335.73;;;;;;;;;;4900159;28;20278;-55
2023/01/15 12:46:39;;;;;;;609.53;330.50;;;;;;;;;;4908548;28;20204;-59
2023/01/15 12:49:18;;;;;;;616.80;345.00;;;;;;;;;;4913587;28;20439;-55
2023/01/15 12:51:53;;;;;;;581.20;310.90;;;;;;;;;;4909979;28;20217;-54
2023/01/15 12:54:23;;;;;;;520.37;282.70;;;;;;;;;;4922069;28;20206;-57
2023/01/15 12:56:58;;;;;;;562.73;297.63;;;;;;;;;;4918138;28;20569;-55
2023/01/15 12:59:37;;;;;;;569.23;307.10;;;;;;;;;;4920416;28;20222;-59
2023/01/15 13:02:33;;;;;;;561.57;297.47;;;;;;;;;;4928750;28;20563;-56
2023/01/15 13:05:05;;;;;;;616.77;331.40;;;;;;;;;;4932778;28;20299;-57
2023/01/15 13:08:03;;;;;;;585.27;320.73;;;;;;;;;;4904743;28;20254;-57
2023/01/15 13:10:34;;;;;;;597.73;332.37;;;;;;;;;;4903797;28;20834;-56
2023/01/15 13:13:28;;;;;;;568.03;296.77;;;;;;;;;;4920548;28;20308;-55
2023/01/15 13:16:08;;;;;;;579.23;317.20;;;;;;;;;;4925608;28;20260;-55
2023/01/15 13:18:34;;;;;;;579.73;316.83;;;;;;;;;;4915505;28;20205;-56
2023/01/15 13:21:07;;;;;;;596.50;330.53;;;;;;;;;;4909848;28;20217;-55
2023/01/15 13:23:43;;;;;;;610.87;334.70;;;;;;;;;;4921984;28;20328;-56
2023/01/15 13:26:40;;;;;;;566.37;310.03;;;;;;;;;;4922087;28;20959;-56
2023/01/15 13:29:42;;;;;;;551.27;295.17;;;;;;;;;;4913519;28;20280;-56
2023/01/15 13:32:14;;;;;;;546.47;284.10;;;;;;;;;;4922834;28;20342;-56
2023/01/15 13:34:44;;;;;;;531.90;292.17;;;;;;;;;;4920202;28;20217;-55
2023/01/15 13:37:29;;;;;;;542.63;297.20;;;;;;;;;;4920416;28;20297;-56
2023/01/15 13:40:10;;;;;;;600.93;332.77;;;;;;;;;;4913434;28;20297;-57
2023/01/15 13:42:45;;;;;;;615.17;329.57;;;;;;;;;;4919879;28;20215;-56
2023/01/15 13:45:17;;;;;;;676.73;383.90;;;;;;;;;;4885269;28;20220;-55
2023/01/15 13:47:46;;;;;;;640.80;339.40;;;;;;;;;;4920678;28;20321;-55
2023/01/15 13:50:20;;;;;;;684.03;379.87;;;;;;;;;;4911892;28;21236;-56
2023/01/15 13:52:49;;;;;;;668.80;358.67;;;;;;;;;;4930514;28;20217;-56
2023/01/15 13:55:15;;;;;;;672.27;368.73;;;;;;;;;;4920185;28;20210;-56
2023/01/15 13:57:43;;;;;;;607.63;320.17;;;;;;;;;;4915386;28;20226;-56
2023/01/15 14:00:28;;;;;;;597.00;334.80;;;;;;;;;;4905512;28;20214;-55
2023/01/15 14:03:04;;;;;;;580.90;315.87;;;;;;;;;;4916843;28;20218;-59
2023/01/15 14:05:46;;;;;;;582.30;323.77;;;;;;;;;;4907965;28;20218;-55
2023/01/15 14:08:24;;;;;;;589.23;334.57;;;;;;;;;;4904504;28;20392;-55
2023/01/15 14:10:52;;;;;;;501.00;273.13;;;;;;;;;;4921517;28;20996;-53
2023/01/15 14:13:45;;;;;;;517.77;272.13;;;;;;;;;;4936984;28;20198;-55
2023/01/15 14:16:35;;;;;;;496.17;270.87;;;;;;;;;;4929417;28;20211;-56
2023/01/15 14:19:07;;;;;;;553.57;310.13;;;;;;;;;;4926967;28;20748;-54
2023/01/15 14:21:40;;;;;;;508.30;282.43;;;;;;;;;;4925627;28;21151;-55
2023/01/15 14:24:06;;;;;;;486.10;261.00;;;;;;;;;;4929489;28;20289;-53
2023/01/15 14:26:42;;;;;;;589.70;320.33;;;;;;;;;;4929896;28;20229;-53
2023/01/15 14:29:37;;;;;;;520.60;279.83;;;;;;;;;;4920993;28;20367;-54
2023/01/15 14:32:09;;;;;;;545.43;301.30;;;;;;;;;;4929655;28;20315;-54
2023/01/15 14:34:36;;;;;;;520.13;278.57;;;;;;;;;;4927038;28;20190;-54
2023/01/15 14:37:22;;;;;;;560.07;298.20;;;;;;;;;;4941468;28;20276;-54
2023/01/15 14:39:54;;;;;;;489.73;267.07;;;;;;;;;;4938907;28;20772;-55
2023/01/15 14:45:20;;;;;;;524.57;283.67;;;;;;;;;;4938823;28;20229;-54
2023/01/15 14:47:48;;;;;;;501.00;265.60;;;;;;;;;;4935887;28;20240;-53
2023/01/15 14:50:29;;;;;;;558.87;311.33;;;;;;;;;;4927423;28;20979;-54
2023/01/15 14:53:03;;;;;;;550.63;300.90;;;;;;;;;;4920794;28;21311;-55
2023/01/15 14:55:30;;;;;;;565.40;305.30;;;;;;;;;;4938371;28;20796;-54
2023/01/15 14:58:07;;;;;;;523.33;285.23;;;;;;;;;;4928953;28;20275;-55
2023/01/15 15:00:42;;;;;;;547.43;285.37;;;;;;;;;;4935347;28;20691;-54
2023/01/15 15:03:14;;;;;;;549.80;292.30;;;;;;;;;;4928856;28;20571;-53
2023/01/15 15:05:41;;;;;;;562.60;291.37;;;;;;;;;;4930849;28;20219;-53
2023/01/15 15:08:18;;;;;;;579.00;303.90;;;;;;;;;;4922756;28;20554;-54